createdAt,value
2023-01-10T00:01:45.772Z,15.20
2023-01-10T00:04:13.391Z,15.40
2023-01-10T00:06:40.617Z,15.17
2023-01-10T00:09:08.079Z,15.10
2023-01-10T00:11:54.399Z,14.76
2023-01-10T00:14:21.576Z,15.24
2023-01-10T00:16:49.023Z,15.41
2023-01-10T00:19:16.182Z,15.26
2023-01-10T00:21:43.326Z,15.23
2023-01-10T00:24:18.910Z,14.40
2023-01-10T00:26:50.982Z,14.55
2023-01-10T00:29:22.325Z,15.01
2023-01-10T00:31:49.493Z,14.91
2023-01-10T00:34:21.162Z,14.67
2023-01-10T00:36:51.751Z,15.17
2023-01-10T00:39:21.895Z,15.47
2023-01-10T00:42:07.810Z,14.46
2023-01-10T00:44:34.965Z,14.96
2023-01-10T00:47:02.400Z,14.62
2023-01-10T00:49:29.538Z,14.36
2023-01-10T00:51:58.354Z,13.54
2023-01-10T00:54:25.933Z,13.29
2023-01-10T00:56:53.068Z,13.68
2023-01-10T00:59:20.275Z,14.14
2023-01-10T01:01:47.811Z,14.23
2023-01-10T01:04:15.126Z,13.66
2023-01-10T01:06:45.919Z,13.61
2023-01-10T01:09:13.669Z,13.82
2023-01-10T01:11:40.922Z,13.08
2023-01-10T01:14:08.064Z,12.77
2023-01-10T01:16:35.517Z,11.73
2023-01-10T01:19:02.749Z,11.42
2023-01-10T01:21:29.898Z,12.24
2023-01-10T01:23:57.318Z,12.34
2023-01-10T01:26:24.817Z,11.95
2023-01-10T01:28:51.999Z,12.38
2023-01-10T01:31:19.538Z,12.53
2023-01-10T01:33:47.967Z,13.36
2023-01-10T01:36:15.106Z,13.03
2023-01-10T01:38:42.591Z,12.77
2023-01-10T01:41:29.751Z,12.90
2023-01-10T01:44:01.408Z,12.16
2023-01-10T01:46:28.761Z,12.14
2023-01-10T01:48:55.977Z,11.10
2023-01-10T01:51:25.428Z,11.62
2023-01-10T01:53:54.128Z,10.97
2023-01-10T01:56:21.269Z,11.81
2023-01-10T01:58:53.611Z,12.32
2023-01-10T02:01:21.890Z,11.91
2023-01-10T02:03:51.929Z,11.65
2023-01-10T02:06:19.679Z,11.93
2023-01-10T02:09:02.080Z,12.44
2023-01-10T02:11:29.538Z,11.17
2023-01-10T02:13:56.719Z,11.02
2023-01-10T02:16:23.955Z,9.81
2023-01-10T02:18:51.366Z,9.64
2023-01-10T02:21:44.800Z,10.10
2023-01-10T02:24:12.164Z,10.52
2023-01-10T02:26:45.049Z,10.89
2023-01-10T02:29:12.434Z,11.36
2023-01-10T02:31:57.940Z,11.80
2023-01-10T02:34:45.459Z,10.71
2023-01-10T02:37:13.963Z,10.83
2023-01-10T02:39:59.299Z,9.93
2023-01-10T02:42:29.427Z,10.83
2023-01-10T02:45:15.734Z,11.12
2023-01-10T02:47:42.901Z,11.90
2023-01-10T02:50:19.258Z,11.71
2023-01-10T02:52:46.396Z,10.98
2023-01-10T02:55:13.864Z,9.84
2023-01-10T02:57:50.665Z,10.22
2023-01-10T03:00:24.625Z,10.60
2023-01-10T03:03:01.268Z,10.52
2023-01-10T03:05:46.718Z,9.88
2023-01-10T03:08:15.012Z,9.62
2023-01-10T03:10:48.152Z,10.54
2023-01-10T03:13:23.042Z,9.93
2023-01-10T03:15:50.497Z,10.29
2023-01-10T03:18:22.346Z,9.92
2023-01-10T03:20:49.668Z,10.04
2023-01-10T03:23:17.178Z,9.59
2023-01-10T03:25:44.462Z,9.48
2023-01-10T03:28:19.197Z,9.58
2023-01-10T03:30:48.914Z,9.51
2023-01-10T03:33:17.376Z,8.98
2023-01-10T03:35:53.737Z,9.86
2023-01-10T03:38:23.298Z,9.48
2023-01-10T03:40:56.097Z,10.15
2023-01-10T03:43:46.370Z,10.59
2023-01-10T03:46:26.307Z,10.81
2023-01-10T03:48:53.959Z,10.07
2023-01-10T03:51:21.139Z,10.44
2023-01-10T03:53:48.357Z,10.11
2023-01-10T03:56:15.837Z,10.63
2023-01-10T03:58:43.031Z,9.84
2023-01-10T04:01:10.279Z,9.92
2023-01-10T04:03:37.837Z,10.15
2023-01-10T04:06:05.181Z,9.63
2023-01-10T04:08:32.362Z,10.06
2023-01-10T04:10:59.853Z,9.45
2023-01-10T04:13:27.019Z,9.29
2023-01-10T04:15:54.219Z,9.49
2023-01-10T04:18:21.748Z,10.46
2023-01-10T04:20:50.672Z,10.32
2023-01-10T04:23:19.314Z,9.78
2023-01-10T04:25:47.306Z,10.21
2023-01-10T04:28:14.459Z,9.80
2023-01-10T04:30:41.647Z,9.16
2023-01-10T04:33:10.395Z,9.55
2023-01-10T04:35:37.503Z,9.71
2023-01-10T04:38:04.671Z,8.82
2023-01-10T04:40:32.104Z,9.59
2023-01-10T04:42:59.258Z,9.70
2023-01-10T04:45:26.518Z,9.47
2023-01-10T04:47:56.195Z,9.49
2023-01-10T04:50:23.898Z,10.10
2023-01-10T04:52:51.027Z,8.92
2023-01-10T04:55:18.569Z,9.82
2023-01-10T04:57:45.724Z,10.50
2023-01-10T05:00:13.186Z,9.57
2023-01-10T05:02:44.192Z,9.99
2023-01-10T05:05:12.308Z,10.03
2023-01-10T05:07:39.702Z,9.72
2023-01-10T05:10:08.064Z,10.34
2023-01-10T05:12:35.230Z,10.75
2023-01-10T05:15:02.575Z,11.40
2023-01-10T05:17:29.986Z,10.64
2023-01-10T05:19:57.134Z,9.31
2023-01-10T05:22:25.545Z,8.86
2023-01-10T05:24:54.654Z,9.10
2023-01-10T05:27:21.917Z,9.25
2023-01-10T05:29:49.685Z,8.47
2023-01-10T05:32:17.168Z,8.90
2023-01-10T05:34:44.426Z,8.82
2023-01-10T05:37:11.638Z,8.07
2023-01-10T05:39:40.115Z,8.32
2023-01-10T05:42:07.284Z,9.29
2023-01-10T05:44:34.687Z,9.17
2023-01-10T05:47:02.159Z,9.66
2023-01-10T05:49:29.354Z,8.82
2023-01-10T05:51:56.616Z,9.41
2023-01-10T05:54:24.049Z,9.27
2023-01-10T05:56:51.185Z,9.20
2023-01-10T05:59:28.180Z,9.25
2023-01-10T06:01:56.149Z,10.34
2023-01-10T06:04:23.584Z,9.08
2023-01-10T06:06:50.726Z,9.10
2023-01-10T06:09:19.466Z,8.68
2023-01-10T06:11:46.906Z,10.31
2023-01-10T06:14:19.055Z,9.84
2023-01-10T06:16:47.118Z,10.36
2023-01-10T06:19:14.344Z,9.60
2023-01-10T06:21:41.782Z,9.20
2023-01-10T06:24:09.375Z,8.98
2023-01-10T06:26:36.493Z,9.75
2023-01-10T06:29:03.615Z,9.59
2023-01-10T06:31:33.509Z,9.13
2023-01-10T06:34:00.730Z,8.83
2023-01-10T06:36:27.920Z,7.76
2023-01-10T06:38:55.342Z,8.42
2023-01-10T06:41:22.592Z,7.78
2023-01-10T06:43:49.741Z,8.29
2023-01-10T06:46:17.790Z,8.54
2023-01-10T06:48:45.667Z,8.69
2023-01-10T06:51:13.454Z,8.32
2023-01-10T06:53:40.998Z,8.44
2023-01-10T06:56:09.622Z,8.71
2023-01-10T06:58:38.747Z,7.83
2023-01-10T07:01:07.149Z,8.32
2023-01-10T07:03:34.523Z,8.73
2023-01-10T07:06:02.476Z,8.39
2023-01-10T07:08:29.940Z,8.56
2023-01-10T07:10:58.037Z,8.46
2023-01-10T07:13:25.193Z,7.96
2023-01-10T07:15:52.639Z,8.07
2023-01-10T07:18:19.808Z,7.98
2023-01-10T07:20:47.959Z,8.49
2023-01-10T07:23:15.409Z,8.77
2023-01-10T07:25:42.550Z,7.88
2023-01-10T07:28:09.721Z,8.19
2023-01-10T07:30:37.696Z,7.39
2023-01-10T07:33:06.311Z,7.98
2023-01-10T07:35:33.704Z,9.07
2023-01-10T07:38:03.173Z,9.13
2023-01-10T07:40:30.366Z,8.69
2023-01-10T07:42:58.017Z,8.60
2023-01-10T07:45:27.066Z,8.12
2023-01-10T07:47:57.736Z,8.73
2023-01-10T07:50:25.005Z,8.66
2023-01-10T07:52:52.440Z,9.13
2023-01-10T07:55:19.750Z,8.88
2023-01-10T07:57:46.991Z,9.40
2023-01-10T08:00:14.736Z,9.33
2023-01-10T08:02:42.199Z,8.68
2023-01-10T08:05:09.508Z,9.34
2023-01-10T08:07:36.696Z,8.51
2023-01-10T08:10:07.367Z,8.61
2023-01-10T08:12:34.622Z,7.75
2023-01-10T08:15:01.743Z,8.10
2023-01-10T08:17:29.188Z,8.19
2023-01-10T08:19:56.358Z,8.11
2023-01-10T08:22:23.543Z,9.01
2023-01-10T08:24:50.935Z,8.83
2023-01-10T08:27:18.116Z,9.46
2023-01-10T08:29:45.244Z,9.18
2023-01-10T08:32:12.664Z,10.33
2023-01-10T08:34:39.812Z,9.49
2023-01-10T08:37:06.992Z,9.33
2023-01-10T08:39:35.431Z,8.54
2023-01-10T08:42:02.804Z,8.90
2023-01-10T08:44:29.944Z,8.50
2023-01-10T08:46:57.417Z,8.71
2023-01-10T08:49:24.575Z,9.34
2023-01-10T08:51:51.716Z,9.19
2023-01-10T08:54:19.142Z,8.75
2023-01-10T08:56:46.392Z,9.12
2023-01-10T08:59:15.822Z,8.52
2023-01-10T09:01:43.350Z,8.84
2023-01-10T09:04:10.575Z,8.40
2023-01-10T09:06:37.896Z,8.82
2023-01-10T09:09:05.368Z,8.85
2023-01-10T09:11:32.516Z,8.55
2023-01-10T09:13:59.773Z,9.31
2023-01-10T09:16:27.233Z,7.94
2023-01-10T09:18:55.791Z,9.08
2023-01-10T09:21:22.944Z,8.11
2023-01-10T09:23:50.366Z,8.12
2023-01-10T09:26:17.533Z,7.90
2023-01-10T09:28:45.083Z,7.78
2023-01-10T09:31:13.100Z,7.84
2023-01-10T09:33:47.202Z,7.76
2023-01-10T09:36:15.767Z,7.46
2023-01-10T09:38:43.273Z,7.92
2023-01-10T09:41:16.243Z,8.08
2023-01-10T09:43:43.652Z,8.41
2023-01-10T09:46:13.960Z,8.48
2023-01-10T09:48:59.774Z,8.61
2023-01-10T09:51:30.443Z,8.20
2023-01-10T09:54:10.721Z,7.85
2023-01-10T09:56:40.695Z,7.80
2023-01-10T09:59:21.398Z,7.53
2023-01-10T10:01:49.052Z,7.89
2023-01-10T10:04:19.977Z,8.07
2023-01-10T10:06:50.643Z,7.92
2023-01-10T10:09:26.551Z,7.71
2023-01-10T10:11:59.683Z,7.48
2023-01-10T10:14:30.158Z,7.74
2023-01-10T10:17:01.317Z,7.14
2023-01-10T10:19:32.181Z,8.01
2023-01-10T10:21:59.385Z,8.73
2023-01-10T10:24:45.083Z,8.13
2023-01-10T10:27:27.438Z,8.08
2023-01-10T10:30:21.021Z,7.90
2023-01-10T10:33:00.491Z,8.26
2023-01-10T10:35:29.849Z,7.95
2023-01-10T10:37:58.855Z,8.40
2023-01-10T10:40:27.001Z,8.73
2023-01-10T10:42:55.488Z,7.64
2023-01-10T10:45:29.436Z,7.59
2023-01-10T10:47:57.685Z,8.53
2023-01-10T10:50:34.564Z,8.80
2023-01-10T10:53:02.206Z,8.70
2023-01-10T10:55:30.742Z,7.59
2023-01-10T10:58:01.363Z,7.30
2023-01-10T11:00:29.264Z,8.13
2023-01-10T11:03:11.629Z,8.01
2023-01-10T11:05:42.999Z,8.43
2023-01-10T11:08:12.666Z,7.97
2023-01-10T11:10:40.458Z,8.15
2023-01-10T11:13:16.864Z,8.33
2023-01-10T11:15:46.530Z,7.53
2023-01-10T11:18:17.681Z,8.08
2023-01-10T11:20:51.363Z,8.60
2023-01-10T11:23:48.451Z,7.49
2023-01-10T11:26:34.660Z,8.19
2023-01-10T11:29:04.901Z,7.99
2023-01-10T11:31:32.527Z,7.78
2023-01-10T11:33:59.753Z,8.76
2023-01-10T11:36:26.989Z,8.23
2023-01-10T11:39:01.878Z,8.37
2023-01-10T11:41:34.152Z,8.97
2023-01-10T11:44:18.494Z,8.13
2023-01-10T11:46:45.905Z,8.14
2023-01-10T11:49:19.492Z,8.60
2023-01-10T11:51:47.917Z,7.81
2023-01-10T11:54:21.927Z,8.04
2023-01-10T11:57:00.301Z,7.87
2023-01-10T11:59:28.167Z,7.51
2023-01-10T12:02:00.496Z,8.23
2023-01-10T12:04:29.066Z,8.37
2023-01-10T12:06:58.063Z,7.90
2023-01-10T12:09:32.730Z,7.50
2023-01-10T12:12:04.471Z,7.77
2023-01-10T12:14:31.821Z,7.31
2023-01-10T12:16:59.791Z,7.30
2023-01-10T12:19:27.298Z,7.75
2023-01-10T12:21:54.431Z,8.32
2023-01-10T12:24:25.852Z,7.90
2023-01-10T12:26:53.974Z,8.13
2023-01-10T12:29:22.072Z,8.18
2023-01-10T12:31:49.825Z,8.36
2023-01-10T12:34:20.144Z,7.82
2023-01-10T12:37:06.122Z,8.14
2023-01-10T12:39:37.228Z,7.62
2023-01-10T12:42:25.969Z,8.03
2023-01-10T12:44:55.681Z,8.05
2023-01-10T12:47:30.915Z,8.16
2023-01-10T12:50:13.408Z,7.80
2023-01-10T12:52:49.093Z,7.74
2023-01-10T12:55:17.323Z,7.87
2023-01-10T12:57:46.492Z,7.74
2023-01-10T13:00:17.455Z,7.63
2023-01-10T13:02:45.436Z,7.26
2023-01-10T13:05:15.308Z,7.63
2023-01-10T13:07:42.495Z,7.70
2023-01-10T13:10:13.770Z,8.51
2023-01-10T13:12:40.994Z,7.99
2023-01-10T13:15:24.568Z,8.42
2023-01-10T13:17:53.978Z,7.95
2023-01-10T13:20:24.611Z,7.69
2023-01-10T13:22:52.738Z,7.59
2023-01-10T13:25:22.969Z,8.40
2023-01-10T13:27:56.981Z,7.39
2023-01-10T13:30:29.378Z,8.84
2023-01-10T13:33:00.985Z,8.61
2023-01-10T13:35:29.487Z,8.11
2023-01-10T13:37:56.761Z,7.92
2023-01-10T13:40:27.397Z,9.02
2023-01-10T13:43:20.055Z,8.21
2023-01-10T13:45:47.255Z,8.45
2023-01-10T13:48:24.579Z,8.75
2023-01-10T13:50:52.729Z,9.30
2023-01-10T13:53:20.250Z,9.15
2023-01-10T13:55:53.499Z,9.40
2023-01-10T13:58:42.663Z,9.12
2023-01-10T14:01:47.222Z,8.20
2023-01-10T14:04:18.735Z,8.78
2023-01-10T14:06:46.054Z,8.71
2023-01-10T14:09:13.246Z,8.53
2023-01-10T14:11:43.416Z,8.78
2023-01-10T14:14:26.085Z,8.58
2023-01-10T14:16:54.145Z,8.18
2023-01-10T14:19:33.661Z,8.05
2023-01-10T14:22:01.916Z,8.87
2023-01-10T14:24:30.763Z,7.90
2023-01-10T14:27:01.177Z,8.24
2023-01-10T14:29:31.538Z,8.00
2023-01-10T14:31:59.510Z,8.32
2023-01-10T14:34:30.685Z,8.72
2023-01-10T14:36:58.920Z,8.33
2023-01-10T14:39:26.484Z,8.01
2023-01-10T14:41:54.707Z,8.17
2023-01-10T14:44:33.091Z,8.13
2023-01-10T14:47:04.541Z,8.73
2023-01-10T14:49:35.891Z,8.81
2023-01-10T14:52:12.219Z,8.53
2023-01-10T14:54:39.673Z,9.46
2023-01-10T14:57:15.845Z,8.37
2023-01-10T14:59:44.299Z,9.01
2023-01-10T15:02:18.443Z,9.32
2023-01-10T15:04:51.976Z,8.73
2023-01-10T15:07:22.725Z,8.28
2023-01-10T15:09:50.835Z,8.50
2023-01-10T15:12:18.453Z,8.71
2023-01-10T15:14:45.624Z,9.14
2023-01-10T15:17:20.557Z,9.04
2023-01-10T15:19:48.611Z,8.92
2023-01-10T15:22:17.250Z,9.35
2023-01-10T15:24:44.428Z,9.01
2023-01-10T15:27:13.303Z,8.85
2023-01-10T15:29:44.863Z,8.55
2023-01-10T15:32:12.540Z,8.84
2023-01-10T15:34:39.853Z,8.44
2023-01-10T15:37:07.443Z,8.77
2023-01-10T15:39:35.959Z,8.47
2023-01-10T15:42:11.979Z,8.10
2023-01-10T15:44:44.892Z,7.79
2023-01-10T15:47:27.413Z,8.49
2023-01-10T15:49:54.922Z,8.35
2023-01-10T15:52:22.642Z,7.88
2023-01-10T15:54:49.932Z,8.44
2023-01-10T15:57:30.353Z,7.92
2023-01-10T15:59:58.959Z,8.47
2023-01-10T16:02:30.909Z,7.90
2023-01-10T16:04:59.222Z,8.21
2023-01-10T16:07:30.216Z,8.40
2023-01-10T16:09:58.944Z,9.31
2023-01-10T16:12:58.578Z,8.72
2023-01-10T16:15:26.833Z,8.24
2023-01-10T16:17:54.427Z,8.66
2023-01-10T16:20:22.548Z,8.11
2023-01-10T16:22:49.900Z,8.77
2023-01-10T16:25:28.466Z,8.53
2023-01-10T16:27:56.393Z,8.14
2023-01-10T16:30:25.016Z,9.56
2023-01-10T16:32:52.260Z,9.09
2023-01-10T16:35:20.231Z,9.05
2023-01-10T16:37:48.976Z,8.86
2023-01-10T16:40:36.490Z,8.44
2023-01-10T16:43:19.357Z,8.01
2023-01-10T16:45:48.341Z,9.13
2023-01-10T16:48:16.148Z,8.66
2023-01-10T16:50:43.494Z,7.96
2023-01-10T16:53:11.891Z,8.26
2023-01-10T16:55:41.557Z,8.88
2023-01-10T16:58:09.269Z,8.64
2023-01-10T17:00:36.797Z,9.02
2023-01-10T17:03:05.608Z,8.65
2023-01-10T17:05:34.311Z,8.13
2023-01-10T17:08:01.695Z,8.40
2023-01-10T17:10:29.990Z,8.93
2023-01-10T17:12:57.167Z,8.47
2023-01-10T17:15:24.474Z,8.22
2023-01-10T17:17:51.952Z,8.49
2023-01-10T17:20:19.293Z,8.60
2023-01-10T17:22:46.426Z,8.09
2023-01-10T17:25:15.904Z,8.60
2023-01-10T17:27:44.632Z,9.35
2023-01-10T17:30:12.133Z,9.38
2023-01-10T17:32:39.658Z,9.43
2023-01-10T17:35:07.158Z,9.72
2023-01-10T17:37:34.761Z,9.68
2023-01-10T17:40:02.793Z,9.35
2023-01-10T17:42:31.061Z,9.52
2023-01-10T17:44:58.236Z,9.25
2023-01-10T17:47:25.673Z,8.23
2023-01-10T17:49:53.340Z,9.65
2023-01-10T17:52:20.532Z,8.74
2023-01-10T17:54:47.960Z,9.09
2023-01-10T17:57:16.045Z,9.84
2023-01-10T17:59:43.237Z,8.55
2023-01-10T18:02:15.168Z,8.55
2023-01-10T18:04:42.909Z,8.10
2023-01-10T18:07:11.809Z,8.86
2023-01-10T18:09:40.156Z,8.22
2023-01-10T18:12:07.850Z,8.18
2023-01-10T18:14:38.169Z,7.68
2023-01-10T18:17:06.857Z,8.23
2023-01-10T18:19:35.136Z,8.12
2023-01-10T18:22:23.526Z,8.61
2023-01-10T18:24:54.216Z,8.51
2023-01-10T18:27:22.492Z,8.44
2023-01-10T18:29:50.672Z,8.56
2023-01-10T18:32:18.900Z,9.81
2023-01-10T18:34:47.223Z,9.74
2023-01-10T18:37:15.634Z,9.27
2023-01-10T18:39:47.528Z,9.66
2023-01-10T18:42:15.623Z,9.72
2023-01-10T18:44:43.463Z,9.73
2023-01-10T18:47:11.012Z,9.10
2023-01-10T18:49:39.782Z,9.50
2023-01-10T18:52:07.816Z,8.65
2023-01-10T18:54:35.549Z,9.62
2023-01-10T18:57:02.878Z,8.57
2023-01-10T18:59:30.826Z,9.89
2023-01-10T19:01:58.527Z,8.80
2023-01-10T19:04:27.307Z,8.89
2023-01-10T19:06:56.764Z,9.64
2023-01-10T19:09:26.385Z,9.54
2023-01-10T19:11:53.919Z,9.53
2023-01-10T19:14:21.486Z,9.36
2023-01-10T19:16:49.416Z,9.72
2023-01-10T19:19:16.951Z,9.74
2023-01-10T19:21:45.246Z,10.22
2023-01-10T19:24:22.158Z,9.89
2023-01-10T19:26:50.957Z,10.52
2023-01-10T19:29:18.577Z,8.93
2023-01-10T19:31:48.316Z,9.63
2023-01-10T19:34:16.755Z,9.53
2023-01-10T19:36:45.504Z,8.86
2023-01-10T19:39:13.538Z,8.08
2023-01-10T19:41:41.313Z,8.37
2023-01-10T19:44:12.732Z,8.36
2023-01-10T19:46:40.726Z,8.57
2023-01-10T19:49:13.644Z,8.63
2023-01-10T19:51:41.522Z,8.91
2023-01-10T19:54:09.708Z,8.56
2023-01-10T19:56:37.297Z,8.24
2023-01-10T19:59:05.260Z,8.72
2023-01-10T20:01:33.969Z,8.53
2023-01-10T20:04:02.248Z,7.74
2023-01-10T20:06:30.834Z,8.63
2023-01-10T20:08:58.583Z,8.60
2023-01-10T20:11:27.243Z,8.04
2023-01-10T20:13:55.025Z,8.23
2023-01-10T20:16:23.074Z,8.22
2023-01-10T20:18:51.672Z,8.26
2023-01-10T20:21:20.191Z,7.74
2023-01-10T20:23:48.342Z,8.37
2023-01-10T20:26:18.929Z,8.00
2023-01-10T20:28:48.274Z,7.95
2023-01-10T20:31:17.243Z,7.25
2023-01-10T20:33:45.177Z,8.49
2023-01-10T20:36:14.239Z,7.97
2023-01-10T20:38:42.140Z,7.87
2023-01-10T20:41:16.753Z,7.78
2023-01-10T20:43:44.894Z,7.89
2023-01-10T20:46:25.434Z,8.60
2023-01-10T20:48:54.362Z,8.03
2023-01-10T20:51:23.679Z,8.15
2023-01-10T20:53:51.215Z,8.21
2023-01-10T20:56:23.303Z,8.64
2023-01-10T20:58:50.822Z,7.81
2023-01-10T21:01:28.684Z,7.51
2023-01-10T21:04:00.374Z,8.13
2023-01-10T21:06:27.671Z,7.50
2023-01-10T21:08:55.012Z,8.02
2023-01-10T21:11:22.438Z,8.08
2023-01-10T21:13:49.714Z,7.73
2023-01-10T21:16:19.363Z,8.08
2023-01-10T21:18:47.482Z,7.25
2023-01-10T21:21:15.576Z,7.96
2023-01-10T21:23:42.783Z,7.71
2023-01-10T21:26:11.426Z,7.89
2023-01-10T21:28:39.417Z,7.64
2023-01-10T21:31:06.666Z,8.10
2023-01-10T21:33:34.305Z,7.55
2023-01-10T21:36:01.454Z,7.46
2023-01-10T21:38:28.787Z,6.97
2023-01-10T21:40:56.800Z,7.20
2023-01-10T21:43:23.969Z,7.32
2023-01-10T21:45:52.573Z,7.75
2023-01-10T21:48:19.971Z,7.87
2023-01-10T21:50:48.308Z,7.15
2023-01-10T21:53:15.501Z,7.72
2023-01-10T21:55:45.668Z,7.42
2023-01-10T21:58:12.887Z,7.43
2023-01-10T22:00:40.072Z,6.98
2023-01-10T22:03:07.564Z,7.58
2023-01-10T22:05:34.743Z,7.47
2023-01-10T22:08:01.901Z,7.77
2023-01-10T22:10:30.298Z,7.99
2023-01-10T22:12:57.454Z,7.96
2023-01-10T22:15:24.625Z,7.49
2023-01-10T22:17:53.536Z,7.89
2023-01-10T22:20:20.779Z,8.33
2023-01-10T22:22:47.921Z,7.97
2023-01-10T22:25:15.432Z,7.13
2023-01-10T22:27:44.942Z,7.61
2023-01-10T22:30:12.533Z,7.93
2023-01-10T22:32:40.028Z,7.54
2023-01-10T22:35:07.466Z,7.61
2023-01-10T22:37:34.642Z,7.79
2023-01-10T22:40:02.046Z,6.85
2023-01-10T22:42:29.451Z,7.68
2023-01-10T22:44:57.435Z,7.79
2023-01-10T22:47:24.861Z,6.90
2023-01-10T22:49:52.206Z,6.96
2023-01-10T22:52:19.350Z,6.90
2023-01-10T22:54:46.783Z,7.86
2023-01-10T22:57:14.412Z,7.61
2023-01-10T22:59:42.699Z,7.12
2023-01-10T23:02:10.143Z,8.02
2023-01-10T23:04:37.335Z,7.10
2023-01-10T23:07:04.494Z,6.72
2023-01-10T23:09:31.887Z,7.63
2023-01-10T23:11:58.995Z,7.54
2023-01-10T23:14:26.176Z,7.88
2023-01-10T23:16:54.789Z,6.86
2023-01-10T23:19:21.932Z,6.68
2023-01-10T23:21:49.037Z,6.57
2023-01-10T23:24:16.655Z,6.62
2023-01-10T23:26:43.767Z,6.63
2023-01-10T23:29:10.898Z,6.60
2023-01-10T23:31:38.331Z,7.29
2023-01-10T23:34:05.416Z,6.67
2023-01-10T23:36:32.502Z,6.59
2023-01-10T23:38:59.979Z,6.81
2023-01-10T23:41:27.067Z,6.63
2023-01-10T23:43:54.220Z,6.61
2023-01-10T23:46:21.746Z,7.19
2023-01-10T23:48:48.956Z,6.45
2023-01-10T23:51:16.174Z,6.89
2023-01-10T23:53:43.533Z,6.45
2023-01-10T23:56:12.305Z,6.63
2023-01-10T23:58:40.293Z,7.35
